createdAt,value
2022-07-26T00:01:13.993Z,21.27
2022-07-26T00:03:41.256Z,22.98
2022-07-26T00:06:08.554Z,19.85
2022-07-26T00:08:35.760Z,20.27
2022-07-26T00:11:07.342Z,16.55
2022-07-26T00:13:35.241Z,14.88
2022-07-26T00:16:02.651Z,20.70
2022-07-26T00:18:30.027Z,17.20
2022-07-26T00:20:57.353Z,21.88
2022-07-26T00:23:25.036Z,21.77
2022-07-26T00:25:52.311Z,19.80
2022-07-26T00:28:19.545Z,18.85
2022-07-26T00:30:46.896Z,17.13
2022-07-26T00:33:15.174Z,23.65
2022-07-26T00:35:42.404Z,26.42
2022-07-26T00:38:09.678Z,24.33
2022-07-26T00:40:37.028Z,17.42
2022-07-26T00:43:04.255Z,21.02
2022-07-26T00:45:31.496Z,24.38
2022-07-26T00:47:58.677Z,29.73
2022-07-26T00:50:25.929Z,32.65
2022-07-26T00:52:54.261Z,28.27
2022-07-26T00:55:21.929Z,20.10
2022-07-26T00:57:49.558Z,33.85
2022-07-26T01:00:18.859Z,23.60
2022-07-26T01:02:46.398Z,24.33
2022-07-26T01:05:13.679Z,25.02
2022-07-26T01:07:41.018Z,21.02
2022-07-26T01:10:12.285Z,24.77
2022-07-26T01:12:40.439Z,20.25
2022-07-26T01:15:08.099Z,19.98
2022-07-26T01:17:36.331Z,25.90
2022-07-26T01:20:06.412Z,33.22
2022-07-26T01:22:33.591Z,18.63
2022-07-26T01:25:00.829Z,24.48
2022-07-26T01:27:33.543Z,18.38
2022-07-26T01:30:01.332Z,22.42
2022-07-26T01:32:28.589Z,23.30
2022-07-26T01:34:55.913Z,23.48
2022-07-26T01:37:23.159Z,30.17
2022-07-26T01:39:50.392Z,16.42
2022-07-26T01:42:17.668Z,21.05
2022-07-26T01:44:44.963Z,24.10
2022-07-26T01:47:12.244Z,21.48
2022-07-26T01:49:39.552Z,20.35
2022-07-26T01:52:06.886Z,18.52
2022-07-26T01:54:34.126Z,24.13
2022-07-26T01:57:01.397Z,20.98
2022-07-26T01:59:28.672Z,26.20
2022-07-26T02:01:56.022Z,21.70
2022-07-26T02:04:41.883Z,29.58
2022-07-26T02:07:12.826Z,26.80
2022-07-26T02:09:40.615Z,28.65
2022-07-26T02:12:08.150Z,18.38
2022-07-26T02:14:35.398Z,24.67
2022-07-26T02:17:03.018Z,34.30
2022-07-26T02:19:30.934Z,24.30
2022-07-26T02:21:58.262Z,23.35
2022-07-26T02:24:28.642Z,33.33
2022-07-26T02:26:56.399Z,36.42
2022-07-26T02:29:23.775Z,20.45
2022-07-26T02:31:51.221Z,23.70
2022-07-26T02:34:19.012Z,31.20
2022-07-26T02:36:46.640Z,26.48
2022-07-26T02:39:14.241Z,35.42
2022-07-26T02:41:41.674Z,17.77
2022-07-26T02:44:09.499Z,25.52
2022-07-26T02:46:37.770Z,25.88
2022-07-26T02:49:05.550Z,24.48
2022-07-26T02:51:33.027Z,26.67
2022-07-26T02:54:00.326Z,24.48
2022-07-26T02:56:27.617Z,25.88
2022-07-26T02:58:54.870Z,32.95
2022-07-26T03:01:22.873Z,15.13
2022-07-26T03:03:51.018Z,29.38
2022-07-26T03:06:18.858Z,23.65
2022-07-26T03:08:46.172Z,30.23
2022-07-26T03:11:13.505Z,21.08
2022-07-26T03:13:40.841Z,20.83
2022-07-26T03:16:08.897Z,24.45
2022-07-26T03:18:36.269Z,32.90
2022-07-26T03:21:03.632Z,19.52
2022-07-26T03:23:33.530Z,21.55
2022-07-26T03:26:01.764Z,33.08
2022-07-26T03:28:34.994Z,22.27
2022-07-26T03:31:02.777Z,18.63
2022-07-26T03:33:30.523Z,28.23
2022-07-26T03:35:58.110Z,21.08
2022-07-26T03:38:25.461Z,20.75
2022-07-26T03:40:52.859Z,29.73
2022-07-26T03:43:23.248Z,23.25
2022-07-26T03:49:16.902Z,27.67
2022-07-26T03:51:44.947Z,18.15
2022-07-26T03:54:12.550Z,29.38
2022-07-26T03:56:40.622Z,24.65
2022-07-26T03:59:09.156Z,17.52
2022-07-26T04:01:37.236Z,21.10
2022-07-26T04:04:04.899Z,24.45
2022-07-26T04:06:32.272Z,23.88
2022-07-26T04:08:59.573Z,20.15
2022-07-26T04:11:28.700Z,26.23
2022-07-26T04:13:56.370Z,20.52
2022-07-26T04:16:23.791Z,21.00
2022-07-26T04:18:51.311Z,21.05
2022-07-26T04:21:18.573Z,17.17
2022-07-26T04:23:50.841Z,19.63
2022-07-26T04:26:19.026Z,19.02
2022-07-26T04:28:46.329Z,16.02
2022-07-26T04:31:13.686Z,17.73
2022-07-26T04:33:41.023Z,16.42
2022-07-26T04:36:08.367Z,15.60
2022-07-26T04:38:35.681Z,26.80
2022-07-26T04:41:02.974Z,23.35
2022-07-26T04:43:30.359Z,22.70
2022-07-26T04:45:57.776Z,24.17
2022-07-26T04:48:25.906Z,20.70
2022-07-26T04:50:53.816Z,26.15
2022-07-26T04:53:21.079Z,15.20
2022-07-26T04:55:48.459Z,14.20
2022-07-26T04:58:15.814Z,15.27
2022-07-26T05:01:08.941Z,18.15
2022-07-26T05:03:35.008Z,25.35
2022-07-26T05:06:02.425Z,23.33
2022-07-26T05:08:29.700Z,13.48
2022-07-26T05:10:56.926Z,16.50
2022-07-26T05:13:29.540Z,21.60
2022-07-26T05:15:58.292Z,16.85
2022-07-26T05:18:26.586Z,13.85
2022-07-26T05:20:54.034Z,19.85
2022-07-26T05:23:21.419Z,17.58
2022-07-26T05:25:48.667Z,15.25
2022-07-26T05:28:16.153Z,12.27
2022-07-26T05:30:43.455Z,17.38
2022-07-26T05:33:10.775Z,11.85
2022-07-26T05:35:43.664Z,20.23
2022-07-26T05:38:11.022Z,14.68
2022-07-26T05:40:38.291Z,13.77
2022-07-26T05:43:05.605Z,10.32
2022-07-26T05:45:32.953Z,16.00
2022-07-26T05:48:00.208Z,16.65
2022-07-26T05:50:27.564Z,16.02
2022-07-26T05:52:55.096Z,17.80
2022-07-26T05:55:22.467Z,29.77
2022-07-26T05:57:49.995Z,20.80
2022-07-26T06:00:17.554Z,32.10
2022-07-26T06:02:44.974Z,23.88
2022-07-26T06:05:12.368Z,20.65
2022-07-26T06:07:39.799Z,14.38
2022-07-26T06:10:07.225Z,15.23
2022-07-26T06:12:34.556Z,20.85
2022-07-26T06:15:01.799Z,15.93
2022-07-26T06:17:30.364Z,15.40
2022-07-26T06:19:58.425Z,16.17
2022-07-26T06:22:25.721Z,14.55
2022-07-26T06:24:53.042Z,8.65
2022-07-26T06:27:20.306Z,10.43
2022-07-26T06:29:49.124Z,15.25
2022-07-26T06:32:16.413Z,13.45
2022-07-26T06:34:43.718Z,13.07
2022-07-26T06:37:10.968Z,23.60
2022-07-26T06:39:38.241Z,23.52
2022-07-26T06:42:05.489Z,15.45
2022-07-26T06:44:32.678Z,15.80
2022-07-26T06:46:59.956Z,15.13
2022-07-26T06:49:27.226Z,13.20
2022-07-26T06:51:57.604Z,10.98
2022-07-26T06:54:24.904Z,14.23
2022-07-26T06:56:52.201Z,19.77
2022-07-26T06:59:19.374Z,12.93
2022-07-26T07:01:58.150Z,10.55
2022-07-26T07:04:27.779Z,17.50
2022-07-26T07:06:55.208Z,10.85
2022-07-26T07:09:24.650Z,10.45
2022-07-26T07:11:57.434Z,9.63
2022-07-26T07:16:56.065Z,12.82
2022-07-26T07:19:23.689Z,9.45
2022-07-26T07:21:51.242Z,12.23
2022-07-26T07:24:18.972Z,9.23
2022-07-26T07:26:46.447Z,12.15
2022-07-26T07:29:15.292Z,7.00
2022-07-26T07:31:49.082Z,9.45
2022-07-26T07:34:19.566Z,7.50
2022-07-26T07:36:47.321Z,5.32
2022-07-26T07:39:17.462Z,7.13
2022-07-26T07:41:46.139Z,6.00
2022-07-26T07:44:13.749Z,6.32
2022-07-26T07:46:41.230Z,7.13
2022-07-26T07:49:08.985Z,11.80
2022-07-26T07:51:36.670Z,5.03
2022-07-26T07:54:05.824Z,6.47
2022-07-26T07:56:33.513Z,5.10
2022-07-26T07:59:00.951Z,7.22
2022-07-26T08:01:39.586Z,5.15
2022-07-26T08:04:08.497Z,4.15
2022-07-26T08:06:35.994Z,7.10
2022-07-26T08:09:03.840Z,3.53
2022-07-26T08:11:33.841Z,6.95
2022-07-26T08:14:01.634Z,7.30
2022-07-26T08:16:29.083Z,4.32
2022-07-26T08:18:57.848Z,7.63
2022-07-26T08:21:28.223Z,5.00
2022-07-26T08:23:56.480Z,4.30
2022-07-26T08:26:23.771Z,2.28
2022-07-26T08:29:10.254Z,3.35
2022-07-26T08:31:37.739Z,4.03
2022-07-26T08:34:05.136Z,6.53
2022-07-26T08:36:33.222Z,3.83
2022-07-26T08:39:00.948Z,5.90
2022-07-26T08:41:28.538Z,11.27
2022-07-26T08:43:55.760Z,9.85
2022-07-26T08:46:25.939Z,5.05
2022-07-26T08:48:54.931Z,3.35
2022-07-26T08:51:24.050Z,4.13
2022-07-26T08:53:52.756Z,12.50
2022-07-26T08:56:19.984Z,5.30
2022-07-26T08:58:47.270Z,4.75
2022-07-26T09:01:15.078Z,11.40
2022-07-26T09:03:44.361Z,8.95
2022-07-26T09:06:17.671Z,2.97
2022-07-26T09:08:45.682Z,3.75
2022-07-26T09:11:25.082Z,3.40
2022-07-26T09:13:59.881Z,1.45
2022-07-26T09:16:27.329Z,2.60
2022-07-26T09:18:54.680Z,5.60
2022-07-26T09:21:38.909Z,4.60
2022-07-26T09:24:06.454Z,6.35
2022-07-26T09:26:33.916Z,6.70
2022-07-26T09:29:09.168Z,4.78
2022-07-26T09:31:37.572Z,5.60
2022-07-26T09:34:05.962Z,5.57
2022-07-26T09:36:34.007Z,2.92
2022-07-26T09:39:02.644Z,3.67
2022-07-26T09:41:38.709Z,6.70
2022-07-26T09:44:07.381Z,3.17
2022-07-26T09:46:35.869Z,3.35
2022-07-26T09:49:23.483Z,4.65
2022-07-26T09:51:51.691Z,3.53
2022-07-26T09:54:20.912Z,3.08
2022-07-26T09:56:52.058Z,5.43
2022-07-26T09:59:21.673Z,6.13
2022-07-26T10:01:50.152Z,2.85
2022-07-26T10:04:17.994Z,3.25
2022-07-26T10:06:45.398Z,2.20
2022-07-26T10:09:13.685Z,6.00
2022-07-26T10:11:43.997Z,2.45
2022-07-26T10:14:30.773Z,4.00
2022-07-26T10:16:57.941Z,12.77
2022-07-26T10:19:45.541Z,9.85
2022-07-26T10:22:24.572Z,2.20
2022-07-26T10:24:57.566Z,2.15
2022-07-26T10:27:38.304Z,2.20
2022-07-26T10:30:23.831Z,2.08
2022-07-26T10:33:05.414Z,1.80
2022-07-26T10:35:41.639Z,2.40
2022-07-26T10:38:10.213Z,5.10
2022-07-26T10:40:38.523Z,8.48
2022-07-26T10:43:37.811Z,4.03
2022-07-26T10:46:15.138Z,3.95
2022-07-26T10:49:03.973Z,0.90
2022-07-26T10:51:35.530Z,4.50
2022-07-26T10:54:04.167Z,2.35
2022-07-26T10:56:33.621Z,2.53
2022-07-26T10:59:01.502Z,2.70
2022-07-26T11:01:35.690Z,6.88
2022-07-26T11:04:03.278Z,8.95
2022-07-26T11:06:30.633Z,1.73
2022-07-26T11:08:57.950Z,2.53
2022-07-26T11:11:32.479Z,3.15
2022-07-26T11:14:10.198Z,4.17
2022-07-26T11:16:45.666Z,6.63
2022-07-26T11:19:14.666Z,2.47
2022-07-26T11:21:42.135Z,3.45
2022-07-26T11:24:09.877Z,4.03
2022-07-26T11:26:47.026Z,5.05
2022-07-26T11:29:17.375Z,3.05
2022-07-26T11:31:55.694Z,4.45
2022-07-26T11:34:28.303Z,8.73
2022-07-26T11:36:57.147Z,1.65
2022-07-26T11:39:32.024Z,4.72
2022-07-26T11:42:10.082Z,5.88
2022-07-26T11:44:37.964Z,3.90
2022-07-26T11:47:13.364Z,2.00
2022-07-26T11:50:00.817Z,2.80
2022-07-26T11:52:31.989Z,9.80
2022-07-26T11:55:00.045Z,4.50
2022-07-26T11:57:31.659Z,5.32
2022-07-26T11:59:59.978Z,7.78
2022-07-26T12:02:27.370Z,6.75
2022-07-26T12:05:13.509Z,5.28
2022-07-26T12:07:52.889Z,7.13
2022-07-26T12:10:20.242Z,8.00
2022-07-26T12:12:47.595Z,2.85
2022-07-26T12:15:15.712Z,4.45
2022-07-26T12:17:58.858Z,3.35
2022-07-26T12:20:28.106Z,7.20
2022-07-26T12:23:06.063Z,10.43
2022-07-26T12:25:36.135Z,4.20
2022-07-26T12:28:03.438Z,5.78
2022-07-26T12:30:35.979Z,14.77
2022-07-26T12:33:03.334Z,7.53
2022-07-26T12:35:33.581Z,4.30
2022-07-26T12:38:00.961Z,11.55
2022-07-26T12:40:29.526Z,8.20
2022-07-26T12:43:03.151Z,6.75
2022-07-26T12:45:32.137Z,4.65
2022-07-26T12:48:00.546Z,1.58
2022-07-26T12:50:28.716Z,8.35
2022-07-26T12:53:09.038Z,6.68
2022-07-26T12:55:39.959Z,4.05
2022-07-26T12:58:07.272Z,5.07
2022-07-26T13:00:34.675Z,4.85
2022-07-26T13:03:02.202Z,10.68
2022-07-26T13:05:31.336Z,3.40
2022-07-26T13:07:58.661Z,3.90
2022-07-26T13:10:34.984Z,4.88
2022-07-26T13:13:03.627Z,3.65
2022-07-26T13:15:35.025Z,5.53
2022-07-26T13:18:04.092Z,2.38
2022-07-26T13:20:31.407Z,4.95
2022-07-26T13:22:58.676Z,2.40
2022-07-26T13:25:28.963Z,1.60
2022-07-26T13:28:01.273Z,1.40
2022-07-26T13:30:28.548Z,4.95
2022-07-26T13:32:55.823Z,2.15
2022-07-26T13:35:23.133Z,3.75
2022-07-26T13:37:50.372Z,7.60
2022-07-26T13:40:17.678Z,1.63
2022-07-26T13:42:44.968Z,3.30
2022-07-26T13:45:12.319Z,4.50
2022-07-26T13:47:39.656Z,4.05
2022-07-26T13:50:07.895Z,3.92
2022-07-26T13:52:35.237Z,9.15
2022-07-26T13:55:02.641Z,6.63
2022-07-26T13:57:49.085Z,2.25
2022-07-26T14:00:17.256Z,3.70
2022-07-26T14:02:44.679Z,1.77
2022-07-26T14:05:12.105Z,11.25
2022-07-26T14:07:40.541Z,3.58
2022-07-26T14:10:08.115Z,4.55
2022-07-26T14:12:35.414Z,3.95
2022-07-26T14:15:05.469Z,3.92
2022-07-26T14:17:35.166Z,6.25
2022-07-26T14:20:02.975Z,5.18
2022-07-26T14:22:30.624Z,7.47
2022-07-26T14:24:57.895Z,4.75
2022-07-26T14:27:25.194Z,8.00
2022-07-26T14:29:52.548Z,8.05
2022-07-26T14:32:22.064Z,8.48
2022-07-26T14:34:49.589Z,7.18
2022-07-26T14:37:44.402Z,10.45
2022-07-26T14:40:07.172Z,8.13
2022-07-26T14:42:34.699Z,7.40
2022-07-26T14:45:02.013Z,4.20
2022-07-26T14:47:29.338Z,6.18
2022-07-26T14:49:56.702Z,10.90
2022-07-26T14:52:24.045Z,9.80
2022-07-26T14:54:51.375Z,7.05
2022-07-26T14:57:19.777Z,9.45
2022-07-26T14:59:47.041Z,11.32
2022-07-26T15:02:14.370Z,7.30
2022-07-26T15:04:41.708Z,5.13
2022-07-26T15:07:09.109Z,7.68
2022-07-26T15:09:36.425Z,6.97
2022-07-26T15:12:03.706Z,8.55
2022-07-26T15:14:31.000Z,9.48
2022-07-26T15:16:58.378Z,8.40
2022-07-26T15:19:25.997Z,6.85
2022-07-26T15:21:55.097Z,10.63
2022-07-26T15:24:23.345Z,7.55
2022-07-26T15:26:51.797Z,7.65
2022-07-26T15:29:19.095Z,7.80
2022-07-26T15:31:48.006Z,5.13
2022-07-26T15:34:16.003Z,11.10
2022-07-26T15:36:43.459Z,4.38
2022-07-26T15:39:18.592Z,7.80
2022-07-26T15:44:13.404Z,7.72
2022-07-26T15:46:42.352Z,14.07
2022-07-26T15:49:10.802Z,4.65
2022-07-26T15:51:38.081Z,4.53
2022-07-26T15:54:06.695Z,4.82
2022-07-26T15:56:33.948Z,6.47
2022-07-26T15:59:01.236Z,11.02
2022-07-26T16:01:29.010Z,6.55
2022-07-26T16:03:56.392Z,4.22
2022-07-26T16:06:23.645Z,4.97
2022-07-26T16:09:15.095Z,9.38
2022-07-26T16:11:38.293Z,3.80
2022-07-26T16:14:05.666Z,7.05
2022-07-26T16:16:33.018Z,9.68
2022-07-26T16:19:00.417Z,5.82
2022-07-26T16:21:27.679Z,6.20
2022-07-26T16:23:55.024Z,3.13
2022-07-26T16:26:23.513Z,6.63
2022-07-26T16:28:50.768Z,11.07
2022-07-26T16:31:18.045Z,6.00
2022-07-26T16:34:17.826Z,6.13
2022-07-26T16:36:45.343Z,9.13
2022-07-26T16:39:13.666Z,8.80
2022-07-26T16:41:41.403Z,8.48
2022-07-26T16:44:08.708Z,5.45
2022-07-26T16:46:36.055Z,10.23
2022-07-26T16:49:04.691Z,4.13
2022-07-26T16:51:32.376Z,9.13
2022-07-26T16:53:59.605Z,10.65
2022-07-26T16:56:26.905Z,10.38
2022-07-26T16:58:54.170Z,7.75
2022-07-26T17:01:21.551Z,8.98
2022-07-26T17:03:48.940Z,4.90
2022-07-26T17:06:16.261Z,7.10
2022-07-26T17:08:43.708Z,8.98
2022-07-26T17:11:11.058Z,10.15
2022-07-26T17:13:38.311Z,6.22
2022-07-26T17:16:05.837Z,8.25
2022-07-26T17:18:33.301Z,6.90
2022-07-26T17:21:01.499Z,6.25
2022-07-26T17:23:28.776Z,30.05
2022-07-26T17:25:56.108Z,9.60
2022-07-26T17:28:23.309Z,10.18
2022-07-26T17:30:51.299Z,6.65
2022-07-26T17:33:18.696Z,12.18
2022-07-26T17:35:46.014Z,12.18
2022-07-26T17:38:13.258Z,5.93
2022-07-26T17:40:42.197Z,7.20
2022-07-26T17:43:09.397Z,5.60
2022-07-26T17:45:36.679Z,7.70
2022-07-26T17:48:06.366Z,7.95
2022-07-26T17:50:36.924Z,12.93
2022-07-26T17:53:05.352Z,7.82
2022-07-26T17:55:32.630Z,13.63
2022-07-26T17:57:59.939Z,9.38
2022-07-26T18:00:28.603Z,11.60
2022-07-26T18:02:56.818Z,8.35
2022-07-26T18:05:30.163Z,10.30
2022-07-26T18:08:00.862Z,8.80
2022-07-26T18:10:28.389Z,7.47
2022-07-26T18:12:56.003Z,10.98
2022-07-26T18:15:23.248Z,9.75
2022-07-26T18:17:50.624Z,6.45
2022-07-26T18:20:17.871Z,10.18
2022-07-26T18:22:45.730Z,8.60
2022-07-26T18:25:17.369Z,7.15
2022-07-26T18:27:44.702Z,12.85
2022-07-26T18:30:12.051Z,6.68
2022-07-26T18:32:39.291Z,4.85
2022-07-26T18:35:06.821Z,10.05
2022-07-26T18:37:34.178Z,11.45
2022-07-26T18:40:01.906Z,10.10
2022-07-26T18:42:29.128Z,6.75
2022-07-26T18:44:56.570Z,9.65
2022-07-26T18:47:23.762Z,6.03
2022-07-26T18:49:51.476Z,8.93
2022-07-26T18:52:31.657Z,8.00
2022-07-26T18:54:59.704Z,5.63
2022-07-26T18:57:26.950Z,10.60
2022-07-26T18:59:54.276Z,5.85
2022-07-26T19:02:21.461Z,11.50
2022-07-26T19:04:48.817Z,10.13
2022-07-26T19:07:16.100Z,12.73
2022-07-26T19:09:43.423Z,9.85
2022-07-26T19:12:10.848Z,9.73
2022-07-26T19:14:38.240Z,17.05
2022-07-26T19:17:09.791Z,8.85
2022-07-26T19:19:37.622Z,8.50
2022-07-26T19:22:05.205Z,11.43
2022-07-26T19:24:32.559Z,17.48
2022-07-26T19:26:59.830Z,10.10
2022-07-26T19:29:27.109Z,9.00
2022-07-26T19:31:54.378Z,7.72
2022-07-26T19:34:23.658Z,3.83
2022-07-26T19:36:52.779Z,4.50
2022-07-26T19:39:20.419Z,13.77
2022-07-26T19:41:50.657Z,8.35
2022-07-26T19:44:18.134Z,11.73
2022-07-26T19:46:47.917Z,5.68
2022-07-26T19:49:17.013Z,8.82
2022-07-26T19:51:44.897Z,14.70
2022-07-26T19:54:12.293Z,5.47
2022-07-26T19:56:40.069Z,4.93
2022-07-26T19:59:07.638Z,4.43
2022-07-26T20:01:35.095Z,7.85
2022-07-26T20:04:03.004Z,10.52
2022-07-26T20:06:30.279Z,8.05
2022-07-26T20:08:57.613Z,5.97
2022-07-26T20:11:25.170Z,12.20
2022-07-26T20:13:52.516Z,10.55
2022-07-26T20:16:19.932Z,3.90
2022-07-26T20:18:47.251Z,5.53
2022-07-26T20:21:14.675Z,5.20
2022-07-26T20:23:42.068Z,6.05
2022-07-26T20:26:09.318Z,4.70
2022-07-26T20:28:36.619Z,2.72
2022-07-26T20:31:03.942Z,9.02
2022-07-26T20:33:31.181Z,8.25
2022-07-26T20:35:58.408Z,6.53
2022-07-26T20:38:25.787Z,3.22
2022-07-26T20:40:53.214Z,3.45
2022-07-26T20:43:22.416Z,5.82
2022-07-26T20:45:50.290Z,4.07
2022-07-26T20:48:17.615Z,4.40
2022-07-26T20:50:44.934Z,3.40
2022-07-26T20:53:12.299Z,11.57
2022-07-26T20:55:39.646Z,4.72
2022-07-26T20:58:06.966Z,2.53
2022-07-26T21:00:34.492Z,5.28
2022-07-26T21:03:01.867Z,4.93
2022-07-26T21:05:32.523Z,3.20
2022-07-26T21:08:00.207Z,5.93
2022-07-26T21:10:29.328Z,4.13
2022-07-26T21:13:00.142Z,6.13
2022-07-26T21:15:28.169Z,5.95
2022-07-26T21:17:55.376Z,7.03
2022-07-26T21:20:22.803Z,4.32
2022-07-26T21:22:50.045Z,7.13
2022-07-26T21:25:17.286Z,9.82
2022-07-26T21:27:44.528Z,8.80
2022-07-26T21:30:12.101Z,2.00
2022-07-26T21:32:39.348Z,8.30
2022-07-26T21:35:06.828Z,5.18
2022-07-26T21:37:34.075Z,11.95
2022-07-26T21:40:01.332Z,3.08
2022-07-26T21:42:28.635Z,5.43
2022-07-26T21:44:55.842Z,9.15
2022-07-26T21:47:23.083Z,6.40
2022-07-26T21:49:50.312Z,5.50
2022-07-26T21:52:17.539Z,10.43
2022-07-26T21:54:44.809Z,7.80
2022-07-26T21:57:12.033Z,7.75
2022-07-26T21:59:39.333Z,7.82
2022-07-26T22:02:06.650Z,13.60
2022-07-26T22:04:33.952Z,7.75
2022-07-26T22:07:01.245Z,5.38
2022-07-26T22:09:28.593Z,5.18
2022-07-26T22:11:55.921Z,10.13
2022-07-26T22:14:23.161Z,9.85
2022-07-26T22:16:50.585Z,3.47
2022-07-26T22:19:18.005Z,4.60
2022-07-26T22:21:45.317Z,4.55
2022-07-26T22:24:12.527Z,13.82
2022-07-26T22:26:42.084Z,6.38
2022-07-26T22:29:09.681Z,3.25
2022-07-26T22:31:37.188Z,6.63
2022-07-26T22:34:04.425Z,6.07
2022-07-26T22:36:31.810Z,9.15
2022-07-26T22:38:59.043Z,4.05
2022-07-26T22:41:26.333Z,8.23
2022-07-26T22:43:59.281Z,8.75
2022-07-26T22:46:28.196Z,8.95
2022-07-26T22:48:56.759Z,5.78
2022-07-26T22:51:24.043Z,7.05
2022-07-26T22:53:51.192Z,6.15
2022-07-26T22:56:19.857Z,7.72
2022-07-26T22:58:47.404Z,9.63
2022-07-26T23:01:17.887Z,7.05
2022-07-26T23:03:48.691Z,10.95
2022-07-26T23:06:31.423Z,7.35
2022-07-26T23:08:59.513Z,4.80
2022-07-26T23:11:26.794Z,8.05
2022-07-26T23:13:59.058Z,3.75
2022-07-26T23:16:26.683Z,3.17
2022-07-26T23:18:53.911Z,7.75
2022-07-26T23:21:21.229Z,5.80
2022-07-26T23:23:48.427Z,7.40
2022-07-26T23:26:15.673Z,7.20
2022-07-26T23:28:42.839Z,10.57
2022-07-26T23:31:11.641Z,12.18
2022-07-26T23:33:51.776Z,8.20
2022-07-26T23:36:22.388Z,6.25
2022-07-26T23:38:49.662Z,5.72
2022-07-26T23:41:16.951Z,7.22
2022-07-26T23:43:44.146Z,4.45
2022-07-26T23:46:11.417Z,9.25
2022-07-26T23:48:38.844Z,12.13
2022-07-26T23:51:06.152Z,7.00
2022-07-26T23:53:33.596Z,8.43
2022-07-26T23:56:00.810Z,5.97
2022-07-26T23:58:28.032Z,11.90
